Time;durP1;ratioP1;P1;durP2;ratioP2;P2;SDS_P1;SDS_P2;PMS_P1;PMS_P2;Temp;Humidity;BMP_temperature;BMP_pressure;BME280_temperature;BME280_humidity;BME280_pressure;Samples;Min_cycle;Max_cycle;Signal;HPM_P1;HPM_P2
2022/04/07 00:01:25;;;;;;;;;72.00;63.80;25.30;99.90;;;;;;5056106;28;8788;-63
2022/04/07 00:03:51;;;;;;;;;80.40;72.40;24.90;99.90;;;;;;5036524;28;8784;-68
2022/04/07 00:06:18;;;;;;;;;75.40;64.40;24.80;99.90;;;;;;5035697;28;8844;-67
2022/04/07 00:08:45;;;;;;;;;86.80;77.20;24.60;99.90;;;;;;5037620;28;8782;-69
2022/04/07 00:11:11;;;;;;;;;76.00;66.60;24.40;99.90;;;;;;5039188;28;8771;-68
2022/04/07 00:13:38;;;;;;;;;80.40;74.00;24.20;99.90;;;;;;5039186;28;8843;-68
2022/04/07 00:16:07;;;;;;;;;87.40;79.80;24.10;99.90;;;;;;5039674;28;8731;-68
2022/04/07 00:18:34;;;;;;;;;78.20;69.80;24.10;99.90;;;;;;5038862;28;8758;-68
2022/04/07 00:21:02;;;;;;;;;76.60;63.60;24.00;99.90;;;;;;5058927;28;9130;-68
2022/04/07 00:23:29;;;;;;;;;85.40;76.20;23.90;99.90;;;;;;5074332;28;8783;-68
2022/04/07 00:25:55;;;;;;;;;81.80;74.80;23.80;99.90;;;;;;5059240;28;8737;-68
2022/04/07 00:28:22;;;;;;;;;87.80;78.40;23.80;99.90;;;;;;5059664;28;8745;-68
2022/04/07 00:30:49;;;;;;;;;85.60;79.20;23.70;99.90;;;;;;5059398;28;8748;-68
2022/04/07 00:33:16;;;;;;;;;85.00;80.20;23.50;99.90;;;;;;5059004;28;8728;-68
2022/04/07 00:35:42;;;;;;;;;71.40;57.80;23.30;99.90;;;;;;5041471;28;9166;-68
2022/04/07 00:38:09;;;;;;;;;87.40;77.00;23.10;99.90;;;;;;5004901;28;8823;-69
2022/04/07 00:40:36;;;;;;;;;81.20;74.40;22.90;99.90;;;;;;5038601;28;8759;-68
2022/04/07 00:43:04;;;;;;;;;84.60;77.40;22.90;99.90;;;;;;5039702;28;8793;-69
2022/04/07 00:45:31;;;;;;;;;80.80;77.80;22.90;99.90;;;;;;5038501;28;9430;-69
2022/04/07 00:47:58;;;;;;;;;77.60;64.80;22.90;99.90;;;;;;5038511;28;8776;-69
2022/04/07 00:50:25;;;;;;;;;74.20;65.00;22.80;99.90;;;;;;5053094;28;9401;-68
2022/04/07 00:52:59;;;;;;;;;90.20;82.80;22.60;99.90;;;;;;5058480;28;8771;-69
2022/04/07 00:55:26;;;;;;;;;73.80;61.20;22.60;99.90;;;;;;5041050;28;8727;-68
2022/04/07 00:57:52;;;;;;;;;87.20;76.00;22.70;99.90;;;;;;5059231;28;8723;-68
2022/04/07 01:00:21;;;;;;;;;85.40;77.60;22.60;99.90;;;;;;5058145;28;9431;-69
2022/04/07 01:02:48;;;;;;;;;66.60;51.80;22.70;99.90;;;;;;5058849;28;8778;-68
2022/04/07 01:05:16;;;;;;;;;73.20;59.80;22.60;99.90;;;;;;5045023;28;8839;-69
2022/04/07 01:07:44;;;;;;;;;78.60;71.60;22.60;99.90;;;;;;5038502;28;8749;-69
2022/04/07 01:10:11;;;;;;;;;74.00;64.60;22.50;99.90;;;;;;5021406;28;8745;-69
2022/04/07 01:12:38;;;;;;;;;79.00;70.60;22.50;99.90;;;;;;5020744;28;8799;-69
2022/04/07 01:15:06;;;;;;;;;77.20;66.40;22.60;99.90;;;;;;5040949;28;8733;-69
2022/04/07 01:17:34;;;;;;;;;81.60;76.00;22.60;99.90;;;;;;5040148;28;9437;-69
2022/04/07 01:20:01;;;;;;;;;75.80;65.40;22.60;99.90;;;;;;5049589;28;8757;-69
2022/04/07 01:22:28;;;;;;;;;79.20;71.40;22.60;99.90;;;;;;5058224;28;8836;-68
2022/04/07 01:24:56;;;;;;;;;76.60;70.80;22.70;99.90;;;;;;5059319;28;8746;-69
2022/04/07 01:27:24;;;;;;;;;79.60;70.80;22.70;99.90;;;;;;5057920;28;8742;-69
2022/04/07 01:29:54;;;;;;;;;83.40;73.80;22.60;99.90;;;;;;5058710;28;8750;-69
2022/04/07 01:32:45;;;;;;;;;78.80;69.20;22.60;99.90;;;;;;5074114;28;8751;-68
2022/04/07 01:35:12;;;;;;;;;77.80;71.20;22.60;99.90;;;;;;5028869;28;8899;-69
2022/04/07 01:37:40;;;;;;;;;86.20;75.60;22.60;99.90;;;;;;5037918;28;8757;-68
2022/04/07 01:40:12;;;;;;;;;72.40;57.80;22.60;99.90;;;;;;5038509;28;8765;-68
2022/04/07 01:42:38;;;;;;;;;76.80;71.20;22.60;99.90;;;;;;5021009;28;8780;-69
2022/04/07 01:45:06;;;;;;;;;74.00;61.80;22.60;99.90;;;;;;5037937;28;8803;-69
2022/04/07 01:47:35;;;;;;;;;79.20;71.60;22.70;99.90;;;;;;5019993;28;8769;-68
2022/04/07 01:50:06;;;;;;;;;79.40;71.00;22.60;99.90;;;;;;5012273;28;8757;-69
2022/04/07 01:52:34;;;;;;;;;77.40;67.20;22.60;99.90;;;;;;5037307;28;8723;-68
2022/04/07 01:55:01;;;;;;;;;74.80;64.80;22.60;99.90;;;;;;5036999;28;8726;-69
2022/04/07 01:57:27;;;;;;;;;76.80;64.60;22.60;99.90;;;;;;5037220;28;8785;-69
2022/04/07 01:59:54;;;;;;;;;79.00;72.00;22.70;99.90;;;;;;5037747;28;8769;-69
2022/04/07 02:02:27;;;;;;;;;80.40;72.20;22.60;99.90;;;;;;5037157;28;9393;-68
2022/04/07 02:04:57;;;;;;;;;80.60;73.20;22.70;99.90;;;;;;5041491;28;10267;-69
2022/04/07 02:07:29;;;;;;;;;78.20;70.80;22.70;99.90;;;;;;5000585;28;8729;-68
2022/04/07 02:09:55;;;;;;;;;80.80;74.60;22.70;99.90;;;;;;5018158;28;8717;-69
2022/04/07 02:12:22;;;;;;;;;75.20;64.60;22.80;99.90;;;;;;5017454;28;8753;-68
2022/04/07 02:14:49;;;;;;;;;77.00;66.60;22.80;99.90;;;;;;4999997;28;9394;-69
2022/04/07 02:17:22;;;;;;;;;77.40;69.80;22.90;99.90;;;;;;5017552;28;9388;-69
2022/04/07 02:20:08;;;;;;;;;78.50;67.50;22.90;99.90;;;;;;5027067;28;9118;-69
2022/04/07 02:22:35;;;;;;;;;77.60;67.80;22.90;99.90;;;;;;5003326;28;8727;-68
2022/04/07 02:25:02;;;;;;;;;76.60;68.80;22.90;99.90;;;;;;5038176;28;8715;-69
2022/04/07 02:27:35;;;;;;;;;76.00;68.40;23.00;99.90;;;;;;5019296;28;8731;-68
2022/04/07 02:30:05;;;;;;;;;77.20;67.40;23.00;99.90;;;;;;5052566;28;8726;-69
2022/04/07 02:32:32;;;;;;;;;76.00;69.60;23.10;99.90;;;;;;5035947;28;8788;-69
2022/04/07 02:34:58;;;;;;;;;72.80;64.00;23.10;99.90;;;;;;5008611;28;8862;-69
2022/04/07 02:37:25;;;;;;;;;75.40;65.60;23.10;99.90;;;;;;5017207;28;8835;-68
2022/04/07 02:39:53;;;;;;;;;72.20;60.80;23.00;99.90;;;;;;4999977;28;8748;-69
2022/04/07 02:42:20;;;;;;;;;76.00;67.40;23.10;99.90;;;;;;5017176;28;8732;-68
2022/04/07 02:44:46;;;;;;;;;79.60;70.40;23.20;99.90;;;;;;4983428;28;8750;-69
2022/04/07 02:47:13;;;;;;;;;71.60;55.60;23.20;99.90;;;;;;5032613;28;8765;-69
2022/04/07 02:49:40;;;;;;;;;70.40;55.60;23.20;99.90;;;;;;5041907;28;8734;-69
2022/04/07 02:52:08;;;;;;;;;78.00;69.00;23.20;99.90;;;;;;5039624;28;8719;-69
2022/04/07 02:54:35;;;;;;;;;76.60;67.80;23.20;99.90;;;;;;5056366;28;8724;-69
2022/04/07 02:57:02;;;;;;;;;74.80;60.80;23.20;99.90;;;;;;5056808;28;8723;-69
2022/04/07 02:59:29;;;;;;;;;73.60;61.60;23.20;99.90;;;;;;5056319;28;8866;-69
2022/04/07 03:01:59;;;;;;;;;77.00;69.60;23.20;99.90;;;;;;5056369;28;8707;-69
2022/04/07 03:04:25;;;;;;;;;77.40;63.20;23.20;99.90;;;;;;5049426;28;8713;-67
2022/04/07 03:06:52;;;;;;;;;75.00;64.00;23.20;99.90;;;;;;5037271;28;8866;-69
2022/04/07 03:09:19;;;;;;;;;75.60;65.20;23.30;99.90;;;;;;5036069;28;8764;-68
2022/04/07 03:11:46;;;;;;;;;73.00;61.20;23.20;99.90;;;;;;5036424;28;9182;-68
2022/04/07 03:14:15;;;;;;;;;70.20;59.20;23.20;99.90;;;;;;5036555;28;8776;-69
2022/04/07 03:16:42;;;;;;;;;77.00;66.80;23.30;99.90;;;;;;5036519;28;8761;-69
2022/04/07 03:19:09;;;;;;;;;75.00;63.60;23.20;99.90;;;;;;5056604;28;8859;-69
2022/04/07 03:21:36;;;;;;;;;77.20;66.80;23.20;99.90;;;;;;5055788;28;8787;-68
2022/04/07 03:24:02;;;;;;;;;79.20;71.80;23.20;99.90;;;;;;5056403;28;9479;-68
2022/04/07 03:26:29;;;;;;;;;75.20;67.20;23.20;99.90;;;;;;5048411;28;8785;-69
2022/04/07 03:28:56;;;;;;;;;77.60;68.20;23.20;99.90;;;;;;5056002;28;8751;-69
2022/04/07 03:31:23;;;;;;;;;77.40;67.80;23.20;99.90;;;;;;5056924;28;8853;-69
2022/04/07 03:33:49;;;;;;;;;71.80;62.40;23.20;99.90;;;;;;5055104;28;8770;-69
2022/04/07 03:36:16;;;;;;;;;74.40;63.00;23.10;99.90;;;;;;5036479;28;8777;-69
2022/04/07 03:38:42;;;;;;;;;72.80;57.40;23.20;99.90;;;;;;5036687;28;9821;-69
2022/04/07 03:41:09;;;;;;;;;72.40;60.20;23.30;99.90;;;;;;5037420;28;8850;-69
2022/04/07 03:43:36;;;;;;;;;77.80;65.40;23.40;99.90;;;;;;5039463;28;9512;-69
2022/04/07 03:46:02;;;;;;;;;74.40;65.80;23.40;99.90;;;;;;5040636;28;8741;-68
2022/04/07 03:48:29;;;;;;;;;70.60;57.00;23.40;99.90;;;;;;5039784;28;8772;-69
2022/04/07 03:50:56;;;;;;;;;63.60;52.00;23.30;99.90;;;;;;5058975;28;8781;-69
2022/04/07 03:53:23;;;;;;;;;72.80;56.80;23.30;99.90;;;;;;5059745;28;8947;-69
2022/04/07 03:55:49;;;;;;;;;69.60;56.20;23.40;99.90;;;;;;5059432;28;8766;-70
2022/04/07 03:58:16;;;;;;;;;69.40;54.80;23.40;99.90;;;;;;5043366;28;8896;-69
2022/04/07 04:00:42;;;;;;;;;72.80;60.00;23.40;99.90;;;;;;5059807;28;8786;-69
2022/04/07 04:03:09;;;;;;;;;68.20;53.60;23.40;99.90;;;;;;5042178;28;8783;-69
2022/04/07 04:05:36;;;;;;;;;66.60;52.20;23.50;99.90;;;;;;5043314;28;8804;-69
2022/04/07 04:08:03;;;;;;;;;70.60;57.40;23.50;99.90;;;;;;5039496;28;8886;-69
2022/04/07 04:10:30;;;;;;;;;69.60;57.60;23.60;99.90;;;;;;5038950;28;8756;-69
2022/04/07 04:12:57;;;;;;;;;74.00;60.60;23.60;99.90;;;;;;5040048;28;8765;-69
2022/04/07 04:15:23;;;;;;;;;68.20;56.40;23.60;99.90;;;;;;5039383;28;8768;-69
2022/04/07 04:17:50;;;;;;;;;72.80;59.00;23.70;99.90;;;;;;5021813;28;8769;-69
2022/04/07 04:20:17;;;;;;;;;69.20;58.00;23.80;99.90;;;;;;5052887;28;8771;-68
2022/04/07 04:22:46;;;;;;;;;69.20;55.20;23.80;99.90;;;;;;5041256;28;8731;-69
2022/04/07 04:25:13;;;;;;;;;70.20;54.20;23.80;99.90;;;;;;5041886;28;8723;-69
2022/04/07 04:27:40;;;;;;;;;73.60;59.40;23.80;99.90;;;;;;5058852;28;8869;-68
2022/04/07 04:30:08;;;;;;;;;67.60;55.60;23.80;99.90;;;;;;5041431;28;8983;-69
2022/04/07 04:32:35;;;;;;;;;73.80;60.00;23.80;99.90;;;;;;5059090;28;8763;-68
2022/04/07 04:35:01;;;;;;;;;65.60;51.40;23.80;99.90;;;;;;5030026;28;8825;-69
2022/04/07 04:37:28;;;;;;;;;70.80;61.00;23.90;99.90;;;;;;5038833;28;8775;-69
2022/04/07 04:39:55;;;;;;;;;74.00;58.20;23.80;99.90;;;;;;5022040;28;8745;-69
2022/04/07 04:42:22;;;;;;;;;67.60;55.80;23.90;99.90;;;;;;5038944;28;8733;-69
2022/04/07 04:44:49;;;;;;;;;70.00;58.20;23.80;99.90;;;;;;5021280;28;8784;-68
2022/04/07 04:47:18;;;;;;;;;75.80;65.00;23.80;99.90;;;;;;5021565;28;8753;-69
2022/04/07 04:49:45;;;;;;;;;69.80;58.60;23.80;99.90;;;;;;5047928;28;8802;-68
2022/04/07 04:52:11;;;;;;;;;70.80;59.20;23.80;99.90;;;;;;5041459;28;8731;-68
2022/04/07 04:54:38;;;;;;;;;67.00;54.80;23.80;99.90;;;;;;5057669;28;8755;-68
2022/04/07 04:57:06;;;;;;;;;70.00;58.40;23.80;99.90;;;;;;5074139;28;8904;-69
2022/04/07 04:59:33;;;;;;;;;73.60;62.40;23.70;99.90;;;;;;5058136;28;8778;-69
2022/04/07 05:02:00;;;;;;;;;67.00;53.60;23.70;99.90;;;;;;5073843;28;8773;-69
2022/04/07 05:04:26;;;;;;;;;69.60;57.40;23.80;99.90;;;;;;5067007;28;8767;-68
2022/04/07 05:06:53;;;;;;;;;68.00;56.00;23.90;99.90;;;;;;5021529;28;8733;-69
2022/04/07 05:09:20;;;;;;;;;67.60;56.20;23.80;99.90;;;;;;5038319;28;8737;-68
2022/04/07 05:11:46;;;;;;;;;72.20;56.40;23.80;99.90;;;;;;5038510;28;9406;-68
2022/04/07 05:14:13;;;;;;;;;72.00;58.20;23.80;99.90;;;;;;5038389;28;8868;-69
2022/04/07 05:16:40;;;;;;;;;71.60;56.80;23.80;99.90;;;;;;5038388;28;9463;-68
2022/04/07 05:19:06;;;;;;;;;69.20;56.60;23.80;99.90;;;;;;5042837;28;8739;-69
2022/04/07 05:21:33;;;;;;;;;70.60;59.80;23.90;99.90;;;;;;5057687;28;8767;-68
2022/04/07 05:23:59;;;;;;;;;68.80;55.20;23.90;99.90;;;;;;5058386;28;8720;-69
2022/04/07 05:26:26;;;;;;;;;74.80;60.20;23.90;99.90;;;;;;5058061;28;8865;-68
2022/04/07 05:28:53;;;;;;;;;68.60;55.20;23.90;99.90;;;;;;5057870;28;8781;-69
2022/04/07 05:31:19;;;;;;;;;74.60;62.40;23.90;99.90;;;;;;5073920;28;8720;-68
2022/04/07 05:33:46;;;;;;;;;73.80;55.80;23.90;99.90;;;;;;5057022;28;8845;-69
2022/04/07 05:36:13;;;;;;;;;70.40;56.60;23.90;99.90;;;;;;5053455;28;8892;-69
2022/04/07 05:38:39;;;;;;;;;68.20;53.60;23.80;99.90;;;;;;5037982;28;9379;-69
2022/04/07 05:41:06;;;;;;;;;71.60;55.80;23.80;99.90;;;;;;5038243;28;8746;-69
2022/04/07 05:43:33;;;;;;;;;65.80;52.00;23.90;99.90;;;;;;5037725;28;8757;-68
2022/04/07 05:46:00;;;;;;;;;62.80;50.20;23.90;99.90;;;;;;5038559;28;8753;-69
2022/04/07 05:48:27;;;;;;;;;72.00;56.20;23.90;99.90;;;;;;5037437;28;8808;-69
2022/04/07 05:50:54;;;;;;;;;65.40;51.80;23.90;99.90;;;;;;5056452;28;9444;-68
2022/04/07 05:53:21;;;;;;;;;66.20;52.80;23.90;99.90;;;;;;5057624;28;8766;-68
2022/04/07 05:55:47;;;;;;;;;65.20;52.00;23.90;99.90;;;;;;5057628;28;8746;-68
2022/04/07 05:58:15;;;;;;;;;64.60;50.20;24.00;99.90;;;;;;5058456;28;8751;-69
2022/04/07 06:00:42;;;;;;;;;66.00;51.60;24.00;99.90;;;;;;5057378;28;8836;-68
2022/04/07 06:03:09;;;;;;;;;67.80;54.20;24.10;99.90;;;;;;5057431;28;8790;-68
2022/04/07 06:05:36;;;;;;;;;66.80;52.00;24.00;99.90;;;;;;5040698;28;8800;-68
2022/04/07 06:08:04;;;;;;;;;65.80;51.80;24.00;99.90;;;;;;5019555;28;9498;-69
2022/04/07 06:10:30;;;;;;;;;66.25;54.00;24.00;99.90;;;;;;5028008;28;8753;-68
2022/04/07 06:13:00;;;;;;;;;61.80;51.00;24.00;99.90;;;;;;5053066;28;8777;-69
2022/04/07 06:15:28;;;;;;;;;64.80;52.60;24.10;99.90;;;;;;5037252;28;8745;-69
2022/04/07 06:17:54;;;;;;;;;67.40;54.60;24.00;99.90;;;;;;5037443;28;8765;-69
2022/04/07 06:20:21;;;;;;;;;70.20;55.00;24.00;99.90;;;;;;5051108;28;8799;-68
2022/04/07 06:22:48;;;;;;;;;67.20;52.40;24.00;99.90;;;;;;5057590;28;8766;-68
2022/04/07 06:25:14;;;;;;;;;68.20;54.80;24.10;99.90;;;;;;5057863;28;8727;-69
2022/04/07 06:27:45;;;;;;;;;69.40;52.80;24.20;99.90;;;;;;5056939;28;8731;-69
2022/04/07 06:30:17;;;;;;;;;68.20;53.40;24.20;99.90;;;;;;5057290;28;8867;-69
2022/04/07 06:32:44;;;;;;;;;70.60;55.60;24.10;99.90;;;;;;5057347;28;8758;-68
2022/04/07 06:35:12;;;;;;;;;69.40;54.00;24.20;99.90;;;;;;5043933;28;8781;-69
2022/04/07 06:37:56;;;;;;;;;68.60;54.00;24.20;99.90;;;;;;5036471;28;9453;-68
2022/04/07 06:40:27;;;;;;;;;67.60;53.60;24.30;99.90;;;;;;5052848;28;8776;-69
2022/04/07 06:42:55;;;;;;;;;51.80;42.60;24.30;99.90;;;;;;5037542;28;8745;-68
2022/04/07 06:45:22;;;;;;;;;67.80;53.60;24.20;99.90;;;;;;5036380;28;8757;-68
2022/04/07 06:47:49;;;;;;;;;71.20;59.00;24.20;99.90;;;;;;5019322;28;9445;-69
2022/04/07 06:50:16;;;;;;;;;62.00;49.60;24.20;99.90;;;;;;5050182;28;8766;-68
2022/04/07 06:52:43;;;;;;;;;67.60;54.00;24.20;99.90;;;;;;5060669;28;8723;-68
2022/04/07 06:55:16;;;;;;;;;65.80;51.80;24.00;99.90;;;;;;5058465;28;8873;-69
2022/04/07 06:58:00;;;;;;;;;72.80;59.20;24.20;99.90;;;;;;5056369;28;9368;-69
2022/04/07 07:00:30;;;;;;;;;67.20;53.40;24.00;99.90;;;;;;5061440;28;8802;-68
2022/04/07 07:02:58;;;;;;;;;72.80;57.40;24.10;99.90;;;;;;5057007;28;8767;-68
2022/04/07 07:05:26;;;;;;;;;68.40;53.60;24.20;99.90;;;;;;5023687;28;9978;-68
2022/04/07 07:07:53;;;;;;;;;66.00;51.40;24.20;99.90;;;;;;5036437;28;8768;-68
2022/04/07 07:10:21;;;;;;;;;73.20;56.20;24.30;99.90;;;;;;5036665;28;8722;-68
2022/04/07 07:12:49;;;;;;;;;73.40;55.40;24.30;99.90;;;;;;5019121;28;8777;-69
2022/04/07 07:15:15;;;;;;;;;72.00;57.20;24.30;99.90;;;;;;5019131;28;8753;-69
2022/04/07 07:17:42;;;;;;;;;62.80;49.60;24.30;99.90;;;;;;5019914;28;9428;-68
2022/04/07 07:20:13;;;;;;;;;69.80;58.80;24.30;99.90;;;;;;5052561;28;8759;-68
2022/04/07 07:22:40;;;;;;;;;75.00;60.80;24.30;99.90;;;;;;5060156;28;8771;-68
2022/04/07 07:25:08;;;;;;;;;69.60;54.60;24.40;99.90;;;;;;5061130;28;8747;-68
2022/04/07 07:27:38;;;;;;;;;72.80;59.60;24.40;99.90;;;;;;5042225;28;8771;-68
2022/04/07 07:30:08;;;;;;;;;71.40;56.00;24.50;99.90;;;;;;5060399;28;8746;-68
2022/04/07 07:32:41;;;;;;;;;75.80;58.60;24.50;99.90;;;;;;5059768;28;8766;-68
2022/04/07 07:35:08;;;;;;;;;68.80;55.20;24.60;99.90;;;;;;5048016;28;8789;-68
2022/04/07 07:37:35;;;;;;;;;67.80;53.40;24.70;99.90;;;;;;5039830;28;8770;-68
2022/04/07 07:40:06;;;;;;;;;69.60;57.40;24.60;99.90;;;;;;5040736;28;8836;-68
2022/04/07 07:42:33;;;;;;;;;72.80;58.00;24.60;99.90;;;;;;5022376;28;8757;-68
2022/04/07 07:44:59;;;;;;;;;72.20;59.40;24.60;99.90;;;;;;5040153;28;8741;-68
2022/04/07 07:47:26;;;;;;;;;70.20;56.00;24.70;99.90;;;;;;5039528;28;8768;-68
2022/04/07 07:49:53;;;;;;;;;71.80;57.40;24.80;99.90;;;;;;5049631;28;8774;-68
2022/04/07 07:52:19;;;;;;;;;72.80;59.00;24.90;99.90;;;;;;5025808;28;8731;-67
2022/04/07 07:54:46;;;;;;;;;68.40;53.60;24.80;99.90;;;;;;5065438;28;8757;-69
2022/04/07 07:57:13;;;;;;;;;68.60;56.20;24.80;99.90;;;;;;5059856;28;8748;-69
2022/04/07 07:59:39;;;;;;;;;68.60;56.60;24.80;99.90;;;;;;5059434;28;9399;-68
2022/04/07 08:02:06;;;;;;;;;68.60;54.80;24.80;99.90;;;;;;5060074;28;8751;-68
2022/04/07 08:04:33;;;;;;;;;71.80;55.20;24.90;99.90;;;;;;5052737;28;8769;-68
2022/04/07 08:06:59;;;;;;;;;75.40;62.20;24.90;99.90;;;;;;5041385;28;8718;-68
2022/04/07 08:09:29;;;;;;;;;65.20;51.40;25.00;99.90;;;;;;5022958;28;8753;-69
2022/04/07 08:11:56;;;;;;;;;64.80;53.60;25.00;99.90;;;;;;5040826;28;8761;-69
2022/04/07 08:14:23;;;;;;;;;69.80;57.40;25.20;99.90;;;;;;5022197;28;8818;-68
2022/04/07 08:16:49;;;;;;;;;69.80;54.00;25.20;99.90;;;;;;5039934;28;8823;-69
2022/04/07 08:19:16;;;;;;;;;66.40;54.80;25.30;99.90;;;;;;5046218;28;8870;-69
2022/04/07 08:21:43;;;;;;;;;68.80;54.00;25.30;99.90;;;;;;5060375;28;8723;-69
2022/04/07 08:24:09;;;;;;;;;70.60;56.60;25.30;99.90;;;;;;5043180;28;8812;-68
2022/04/07 08:26:36;;;;;;;;;70.60;56.80;25.30;99.90;;;;;;5075457;28;8727;-68
2022/04/07 08:29:03;;;;;;;;;68.80;55.40;25.40;99.90;;;;;;5058862;28;8715;-68
2022/04/07 08:31:29;;;;;;;;;68.20;53.40;25.30;99.90;;;;;;5042047;28;8853;-68
2022/04/07 08:33:56;;;;;;;;;70.20;56.80;25.30;99.90;;;;;;5058075;28;8732;-69
2022/04/07 08:36:23;;;;;;;;;68.20;54.20;25.30;99.90;;;;;;5039282;28;8798;-68
2022/04/07 08:38:49;;;;;;;;;69.60;54.80;25.40;99.90;;;;;;5039335;28;8792;-69
2022/04/07 08:41:16;;;;;;;;;71.80;56.20;25.40;99.90;;;;;;5039123;28;8788;-69
2022/04/07 08:43:42;;;;;;;;;73.20;56.00;25.40;99.90;;;;;;5021300;28;8766;-68
2022/04/07 08:46:13;;;;;;;;;71.20;55.60;25.40;99.90;;;;;;5021978;28;8835;-68
2022/04/07 08:48:43;;;;;;;;;73.60;57.80;25.30;99.90;;;;;;5038616;28;8789;-69
2022/04/07 08:51:10;;;;;;;;;70.60;55.20;25.20;99.90;;;;;;5059090;28;8794;-69
2022/04/07 08:53:38;;;;;;;;;69.00;55.40;25.30;99.90;;;;;;5058866;28;8791;-69
2022/04/07 08:56:05;;;;;;;;;68.80;54.60;25.30;99.90;;;;;;5058884;28;8861;-68
2022/04/07 08:58:32;;;;;;;;;70.20;58.00;25.30;99.90;;;;;;5058981;28;8833;-65
2022/04/07 09:01:02;;;;;;;;;68.80;55.60;25.40;99.90;;;;;;5042459;28;9423;-69
2022/04/07 09:03:29;;;;;;;;;71.00;57.80;25.40;99.90;;;;;;5059071;28;8767;-68
2022/04/07 09:05:57;;;;;;;;;70.20;56.00;25.40;99.90;;;;;;5055198;28;8756;-69
2022/04/07 09:08:35;;;;;;;;;72.80;59.20;25.40;99.90;;;;;;5020561;28;8733;-68
2022/04/07 09:11:03;;;;;;;;;73.00;59.60;25.40;99.90;;;;;;5038760;28;8765;-68
2022/04/07 09:13:36;;;;;;;;;73.60;58.60;25.40;99.90;;;;;;5020708;28;9556;-68
2022/04/07 09:16:04;;;;;;;;;72.80;59.20;25.30;99.90;;;;;;5039289;28;8745;-69
2022/04/07 09:18:35;;;;;;;;;74.60;59.60;25.30;99.90;;;;;;5038143;28;8769;-68
2022/04/07 09:21:02;;;;;;;;;70.00;55.00;25.30;99.90;;;;;;5060098;28;8802;-69
2022/04/07 09:23:41;;;;;;;;;73.20;57.00;25.40;99.90;;;;;;5060752;28;8778;-68
2022/04/07 09:26:14;;;;;;;;;70.00;55.20;25.40;99.90;;;;;;5040831;28;8792;-69
2022/04/07 09:28:41;;;;;;;;;69.50;55.75;25.40;99.90;;;;;;5058279;28;9252;-68
2022/04/07 09:31:11;;;;;;;;;74.60;58.80;25.40;99.90;;;;;;5074128;28;8746;-69
2022/04/07 09:33:38;;;;;;;;;64.20;51.00;25.40;99.90;;;;;;5040472;28;9447;-68
2022/04/07 09:36:06;;;;;;;;;67.20;54.60;25.40;99.90;;;;;;5037903;28;8764;-69
2022/04/07 09:38:36;;;;;;;;;68.20;57.00;25.40;99.90;;;;;;5037464;28;9435;-68
2022/04/07 09:41:05;;;;;;;;;76.60;60.40;25.40;99.90;;;;;;5037428;28;8879;-69
2022/04/07 09:43:47;;;;;;;;;67.60;53.60;25.40;99.90;;;;;;5037475;28;8741;-68
2022/04/07 09:46:21;;;;;;;;;74.00;58.80;25.40;99.90;;;;;;5022051;28;8785;-69
2022/04/07 09:49:09;;;;;;;;;72.20;59.20;25.40;99.90;;;;;;5020912;28;8778;-69
2022/04/07 09:51:47;;;;;;;;;70.20;55.80;25.40;99.90;;;;;;5057777;28;8766;-69
2022/04/07 09:54:16;;;;;;;;;73.20;55.60;25.40;99.90;;;;;;5040490;28;8763;-69
2022/04/07 09:56:43;;;;;;;;;72.60;58.40;25.40;99.90;;;;;;5057478;28;8749;-69
2022/04/07 09:59:10;;;;;;;;;71.00;57.40;25.40;99.90;;;;;;5072674;28;8822;-69
2022/04/07 10:01:40;;;;;;;;;68.60;57.60;25.40;99.90;;;;;;5057113;28;8796;-69
2022/04/07 10:04:08;;;;;;;;;71.40;60.40;25.40;99.90;;;;;;5054244;28;8759;-69
2022/04/07 10:06:35;;;;;;;;;71.00;57.40;25.40;99.90;;;;;;5019634;28;8808;-69
2022/04/07 10:09:03;;;;;;;;;68.20;56.40;25.40;99.90;;;;;;5037623;28;8823;-69
2022/04/07 10:11:31;;;;;;;;;74.00;60.60;25.40;99.90;;;;;;5037270;28;8804;-69
2022/04/07 10:13:58;;;;;;;;;70.80;58.00;25.30;99.90;;;;;;5037318;28;8735;-69
2022/04/07 10:16:28;;;;;;;;;73.40;58.00;25.30;99.90;;;;;;5037558;28;8820;-69
2022/04/07 10:19:33;;;;;;;;;64.20;52.60;25.30;99.90;;;;;;5039552;28;8727;-69
2022/04/07 10:22:27;;;;;;;;;71.60;59.60;25.30;99.90;;;;;;5054110;28;8832;-69
2022/04/07 10:25:00;;;;;;;;;70.40;55.20;25.30;99.90;;;;;;5057858;28;8740;-69
2022/04/07 10:27:29;;;;;;;;;71.60;58.00;25.30;99.90;;;;;;5039555;28;8769;-69
2022/04/07 10:30:03;;;;;;;;;75.60;61.00;25.30;99.90;;;;;;5039618;28;8784;-69
2022/04/07 10:32:49;;;;;;;;;73.80;61.00;25.30;99.90;;;;;;5057449;28;8721;-69
2022/04/07 10:35:29;;;;;;;;;74.60;63.60;25.30;99.90;;;;;;5044374;28;8746;-69
2022/04/07 10:37:57;;;;;;;;;74.00;62.20;25.30;99.90;;;;;;5037987;28;9407;-69
2022/04/07 10:40:44;;;;;;;;;73.80;61.20;25.30;99.90;;;;;;5037663;28;8719;-68
2022/04/07 10:43:21;;;;;;;;;71.40;59.80;25.30;99.90;;;;;;5037735;28;8813;-69
2022/04/07 10:45:50;;;;;;;;;75.80;62.20;25.30;99.90;;;;;;5037437;28;8747;-69
2022/04/07 10:48:28;;;;;;;;;69.20;55.60;25.30;99.90;;;;;;5036529;28;9866;-69
2022/04/07 10:50:58;;;;;;;;;70.80;61.40;25.30;99.90;;;;;;5055536;28;8766;-69
2022/04/07 10:53:29;;;;;;;;;71.80;59.20;25.30;99.90;;;;;;5039294;28;8777;-69
2022/04/07 10:55:59;;;;;;;;;74.80;61.80;25.30;99.90;;;;;;5057252;28;8861;-69
2022/04/07 10:58:49;;;;;;;;;74.60;61.60;25.20;99.90;;;;;;5056377;28;8731;-68
2022/04/07 11:01:31;;;;;;;;;74.00;61.00;25.20;99.90;;;;;;5040087;28;8790;-69
2022/04/07 11:04:19;;;;;;;;;74.80;60.20;25.20;99.90;;;;;;5055178;28;8739;-69
2022/04/07 11:07:16;;;;;;;;;71.80;59.20;25.30;99.90;;;;;;5036981;28;8761;-69
2022/04/07 11:09:58;;;;;;;;;70.00;56.60;25.30;99.90;;;;;;5030213;28;9465;-69
2022/04/07 11:12:25;;;;;;;;;73.20;59.40;25.30;99.90;;;;;;5036330;28;9481;-69
2022/04/07 11:14:54;;;;;;;;;75.80;63.60;25.20;99.90;;;;;;5036443;28;8769;-69
2022/04/07 11:17:33;;;;;;;;;73.00;59.60;25.20;99.90;;;;;;5036288;28;8760;-68
2022/04/07 11:20:15;;;;;;;;;71.40;59.80;25.20;99.90;;;;;;5048052;28;8770;-69
2022/04/07 11:22:58;;;;;;;;;75.60;62.80;25.20;99.90;;;;;;5056878;28;8897;-69
2022/04/07 11:25:38;;;;;;;;;71.00;61.20;25.10;99.90;;;;;;5038642;28;8751;-68
2022/04/07 11:28:10;;;;;;;;;72.40;62.00;25.10;99.90;;;;;;5057435;28;8817;-69
2022/04/07 11:30:38;;;;;;;;;78.40;67.00;25.10;99.90;;;;;;5056820;28;8789;-69
2022/04/07 11:33:25;;;;;;;;;62.20;51.00;25.10;99.90;;;;;;5056743;28;8774;-69
2022/04/07 11:36:04;;;;;;;;;69.00;60.00;25.10;99.90;;;;;;5038497;28;8776;-69
2022/04/07 11:38:37;;;;;;;;;72.80;61.20;25.10;99.90;;;;;;5037216;28;8776;-69
2022/04/07 11:41:07;;;;;;;;;70.40;53.80;25.10;99.90;;;;;;5019446;28;9983;-69
2022/04/07 11:43:36;;;;;;;;;73.40;60.20;25.00;99.90;;;;;;5037144;28;8764;-68
2022/04/07 11:46:02;;;;;;;;;75.20;65.60;25.00;99.90;;;;;;5019781;28;8764;-69
2022/04/07 11:48:33;;;;;;;;;72.80;59.00;25.00;99.90;;;;;;5018584;28;9564;-68
2022/04/07 11:51:03;;;;;;;;;75.00;64.40;25.00;99.90;;;;;;5037536;28;8754;-69
2022/04/07 11:53:30;;;;;;;;;74.40;62.80;25.00;99.90;;;;;;5055989;28;8762;-69
2022/04/07 11:55:59;;;;;;;;;78.40;68.80;24.90;99.90;;;;;;5038784;28;8931;-69
2022/04/07 11:58:29;;;;;;;;;75.20;68.00;24.90;99.90;;;;;;5038639;28;8735;-68
2022/04/07 12:00:56;;;;;;;;;75.80;65.80;24.90;99.90;;;;;;5056776;28;8782;-69
2022/04/07 12:03:22;;;;;;;;;77.20;70.00;24.90;99.90;;;;;;5038719;28;8812;-68
2022/04/07 12:05:49;;;;;;;;;76.40;67.00;24.80;99.90;;;;;;5024621;28;8791;-69
2022/04/07 12:08:16;;;;;;;;;76.60;67.80;24.90;99.90;;;;;;5039882;28;8753;-69
2022/04/07 12:10:44;;;;;;;;;78.60;72.20;24.90;99.90;;;;;;5039588;28;8760;-69
2022/04/07 12:13:10;;;;;;;;;80.20;71.60;24.90;99.90;;;;;;5022390;28;8810;-69
2022/04/07 12:15:38;;;;;;;;;79.00;71.40;24.80;99.90;;;;;;5021475;28;9413;-69
2022/04/07 12:18:08;;;;;;;;;80.80;71.00;24.80;99.90;;;;;;5038286;28;9524;-69
2022/04/07 12:20:36;;;;;;;;;77.00;68.20;24.90;99.90;;;;;;5054680;28;8766;-68
2022/04/07 12:23:07;;;;;;;;;80.40;74.20;24.80;99.90;;;;;;5059379;28;8767;-69
2022/04/07 12:25:34;;;;;;;;;80.60;72.80;24.80;99.90;;;;;;5059111;28;8828;-69
2022/04/07 12:28:08;;;;;;;;;77.20;69.20;24.70;99.90;;;;;;5059982;28;8715;-69
2022/04/07 12:30:55;;;;;;;;;78.20;73.20;24.70;99.90;;;;;;5059069;28;8816;-68
2022/04/07 12:33:39;;;;;;;;;78.80;71.80;24.70;99.90;;;;;;5059118;28;9100;-68
2022/04/07 12:36:16;;;;;;;;;82.60;76.00;24.60;99.90;;;;;;5039267;28;8772;-68
2022/04/07 12:39:08;;;;;;;;;81.60;74.80;24.60;99.90;;;;;;5054894;28;8759;-69
2022/04/07 12:41:50;;;;;;;;;84.20;73.40;24.60;99.90;;;;;;5021639;28;8780;-69
2022/04/07 12:44:33;;;;;;;;;78.60;70.60;24.60;99.90;;;;;;5039004;28;8843;-69
2022/04/07 12:47:05;;;;;;;;;83.20;78.20;24.60;99.90;;;;;;5037732;28;8757;-68